Platte, South Dakota
Current Conditions -  °F | °C
As of 5:15 PM on Friday 19 Dec 2014 (Local Time) from K9V9 Reporting Station
Clear Clear  
Wind Chill: 19°   Ceiling: Unl
Heat Index: 26°   Visibility: 10mi
Dew Point: 22°   Wind: 6mph
Humidity: 86%   Direction: 120°ESE
Pressure: 30"   Gusts: NA
Location:  43.39°N, 98.84°W
Report Text: K9V9 192315Z AUTO 12005KT 10SM CLR M03/M05 A3000 RMK AO2 T10331053
Loading
Personal Weather Stations






























Interactive Weather Map New forecast layout! Learn more

10-Day Weather Forecast

Advertisements
Track Severe Weather on mobile